Terminal Aerodrome Forecast
Issued by NWS Wilmington, OH

Current Version | Previous Version | Graphics & Text | Print | Product List | Glossary On
Versions: 1 2 3 4 5 6 7 8 9 10 11 12 13 14 15 16 17 18 19 20
000
FTUS41 KILN 261300 AAA
TAFCMH
TAF AMD
KCMH 261307Z 2613/2712 36006KT 2SM -RA BR BKN006 OVC025
     FM261800 33012G22KT 5SM -SHRA BR OVC018
     FM262000 32010G20KT 5SM BR VCSH BKN025
     FM262300 32014KT P6SM SCT040 BKN100
     FM271000 33008KT P6SM BKN050=

USA.gov is the U.S. government's official web portal to all federal, state and local government web resources and services.